»·PEaware :: CGASG YSCB-YSSY

CGASG :: YSCB-YSSY

FLIGHT INFORMATION

Flight Status: Arrived
Operator: Unknown
More flights by this operator :: More flights under this callsign
Pilot: Alan S. (10569)
Aircraft: LET KUNOVICE L-410 TURBOLET
(L410)
More flights by this aircraft type
Origin: YSCB Canberra
Australia
Destination: YSSY Kingsford Smith Intl
Australia
More flights between these airports :: More routes between these airports
Route: CB J42 WOL
File this flight plan on PilotEdge
Remarks: EQUIP / G @twitch.tv / aerosimgaming
Altitude:
(Current/Filed)
22,000ft
Speed:
(Current/Filed)
260kts
Departed: 03-Jun-16 10:34 PM
Arrived: 03-Jun-16 11:22 PM
Distance/Time
Traveled:
128nm/0:48
Distance/Time
To Go:
Arrived

Flight Plot

Page will automatically refresh every two minutes.


Map Options




Map Legend


Flown Route
Filed Route
Departure Airport
Arrival Airport
Navaid (VOR, NDB)
Fix

Horizontal Profiles

Position Reports

Time Latitude Longitude Heading Altitude Ground
Speed
03-Jun-16 22:24 -35.303394 149.199122 125 1891ft 0kts
03-Jun-16 22:25 -35.303394 149.199122 125 1891ft 0kts
03-Jun-16 22:26 -35.303394 149.199122 125 1891ft 0kts
03-Jun-16 22:27 -35.303394 149.199122 125 1891ft 0kts
03-Jun-16 22:28 -35.303580 149.199337 182 1891ft 7kts
03-Jun-16 22:29 -35.303082 149.197276 307 1891ft 11kts
03-Jun-16 22:30 -35.301504 149.193094 291 1891ft 8kts
03-Jun-16 22:31 -35.303482 149.190345 225 1891ft 11kts
03-Jun-16 22:32 -35.315594 149.206970 125 2482ft 112kts
03-Jun-16 22:33 -35.337709 149.241549 110 3548ft 154kts
03-Jun-16 22:34 -35.316515 149.280158 39 4877ft 150kts
03-Jun-16 22:35 -35.283387 149.314125 45 6098ft 158kts
03-Jun-16 22:36 -35.255257 149.350322 45 7150ft 166kts
03-Jun-16 22:37 -35.221696 149.388989 43 8257ft 170kts
03-Jun-16 22:38 -35.188773 149.429387 58 9316ft 174kts
03-Jun-16 22:39 -35.163823 149.478756 56 10269ft 178kts
03-Jun-16 22:40 -35.140861 149.532062 62 11056ft 183kts
03-Jun-16 22:41 -35.120130 149.581389 63 11804ft 155kts
03-Jun-16 22:41 -35.102849 149.622464 63 12491ft 171kts
03-Jun-16 22:43 -35.079144 149.678998 62 13486ft 159kts
03-Jun-16 22:43 -35.062371 149.719007 62 14147ft 160kts
03-Jun-16 22:45 -35.038232 149.776229 62 14908ft 172kts
03-Jun-16 22:45 -35.018617 149.822560 62 14903ft 196kts
03-Jun-16 22:46 -34.995028 149.878132 61 14910ft 188kts
03-Jun-16 22:47 -34.967976 149.935317 59 14913ft 198kts
03-Jun-16 22:48 -34.940365 149.993559 59 14919ft 199kts
03-Jun-16 22:49 -34.912579 150.052079 59 14920ft 200kts
03-Jun-16 22:50 -34.889026 150.101600 59 14918ft 195kts
03-Jun-16 22:51 -34.862267 150.157781 59 14920ft 192kts
03-Jun-16 22:52 -34.835752 150.213363 59 14920ft 192kts
03-Jun-16 22:53 -34.809138 150.269065 59 14920ft 191kts
03-Jun-16 22:54 -34.782370 150.325000 59 14920ft 191kts
03-Jun-16 22:55 -34.755610 150.380829 60 14920ft 191kts
03-Jun-16 22:56 -34.729113 150.436021 59 14920ft 191kts
03-Jun-16 22:57 -34.702544 150.491276 59 14920ft 191kts
03-Jun-16 22:58 -34.676007 150.546378 59 14920ft 191kts
03-Jun-16 22:59 -34.649340 150.601664 59 14834ft 196kts
03-Jun-16 23:00 -34.620646 150.661187 59 14061ft 211kts
03-Jun-16 23:01 -34.590829 150.723250 59 13269ft 215kts
03-Jun-16 23:02 -34.560047 150.784601 39 12399ft 219kts
03-Jun-16 23:03 -34.503411 150.808452 15 11454ft 222kts
03-Jun-16 23:04 -34.445177 150.827834 15 10478ft 221kts
03-Jun-16 23:05 -34.387051 150.846811 15 9487ft 219kts
03-Jun-16 23:06 -34.329771 150.865438 15 8498ft 216kts
03-Jun-16 23:07 -34.273989 150.883541 15 7495ft 200kts
03-Jun-16 23:08 -34.222115 150.900382 16 6497ft 190kts
03-Jun-16 23:09 -34.172341 150.916507 16 5480ft 183kts
03-Jun-16 23:10 -34.124369 150.932592 19 4475ft 178kts
03-Jun-16 23:11 -34.079873 150.951030 21 3798ft 155kts
03-Jun-16 23:13 -34.047022 150.964631 20 3567ft 136kts
03-Jun-16 23:14 -34.009537 150.977931 21 3202ft 144kts
03-Jun-16 23:15 -33.981983 151.006797 69 2597ft 143kts
03-Jun-16 23:16 -33.970330 151.051008 69 1952ft 138kts
03-Jun-16 23:17 -33.960770 151.093607 67 1136ft 125kts
03-Jun-16 23:18 -33.954340 151.122108 62 1003ft 73kts
03-Jun-16 23:19 -33.947663 151.148125 66 441ft 82kts
03-Jun-16 23:20 -33.942047 151.171882 70 25ft 14kts
03-Jun-16 23:21 -33.946915 151.151367 69 383ft 83kts
03-Jun-16 23:22 -33.945215 151.158499 63 229ft 86kts
03-Jun-16 23:23 -33.956413 151.114758 61 1092ft 75kts
03-Jun-16 23:24 -33.952082 151.129808 63 806ft 78kts
03-Jun-16 23:25 -33.950727 151.135435 67 716ft 85kts
03-Jun-16 23:26 -33.944301 151.162547 68 125ft 86kts
03-Jun-16 23:27 -33.941827 151.172577 65 25ft 3kts
03-Jun-16 23:28 -33.952433 151.128594 57 823ft 77kts
03-Jun-16 23:29 -33.946010 151.155170 67 303ft 83kts
03-Jun-16 23:30 -33.941827 151.172577 65 25ft 3kts
03-Jun-16 23:31 -33.941827 151.172577 65 25ft 3kts
03-Jun-16 23:32 -33.941827 151.172577 65 25ft 3kts
03-Jun-16 23:33 -33.941827 151.172577 65 25ft 3kts
03-Jun-16 23:34 -33.941827 151.172577 65 25ft 3kts

Navigation Log

Ident Type
Flight plan parsing failed, navigation log unavailable